createdAt,value
2023-08-20T00:02:16.488Z,15.30
2023-08-20T00:04:46.679Z,15.30
2023-08-20T00:07:14.174Z,15.10
2023-08-20T00:09:42.319Z,15.00
2023-08-20T00:12:10.271Z,14.80
2023-08-20T00:15:06.016Z,14.80
2023-08-20T00:17:38.566Z,14.70
2023-08-20T00:20:14.342Z,14.60
2023-08-20T00:22:46.892Z,14.60
2023-08-20T00:25:16.151Z,14.60
2023-08-20T00:27:44.321Z,14.50
2023-08-20T00:30:14.426Z,14.50
2023-08-20T00:32:41.940Z,14.50
2023-08-20T00:35:10.392Z,14.50
2023-08-20T00:38:18.417Z,14.60
2023-08-20T00:41:01.214Z,14.60
2023-08-20T00:43:28.471Z,14.60
2023-08-20T00:45:55.781Z,14.60
2023-08-20T00:48:23.393Z,14.60
2023-08-20T00:50:50.822Z,14.70
2023-08-20T00:53:20.990Z,14.80
2023-08-20T00:55:49.703Z,14.70
2023-08-20T00:58:17.227Z,14.80
2023-08-20T01:00:44.420Z,14.80
2023-08-20T01:03:11.844Z,14.80
2023-08-20T01:05:45.463Z,14.90
2023-08-20T01:08:34.722Z,15.00
2023-08-20T01:11:26.275Z,15.00
2023-08-20T01:13:56.774Z,15.00
2023-08-20T01:16:24.660Z,15.00
2023-08-20T01:18:52.510Z,15.00
2023-08-20T01:21:40.734Z,14.90
2023-08-20T01:24:57.003Z,15.00
2023-08-20T01:27:27.069Z,15.10
2023-08-20T01:29:56.173Z,15.10
2023-08-20T01:32:25.268Z,15.10
2023-08-20T01:34:55.093Z,15.10
2023-08-20T01:37:23.362Z,15.10
2023-08-20T01:39:50.839Z,15.10
2023-08-20T01:42:18.113Z,15.00
2023-08-20T01:44:45.632Z,15.00
2023-08-20T01:47:12.925Z,15.00
2023-08-20T01:49:40.321Z,15.00
2023-08-20T01:52:07.826Z,14.80
2023-08-20T01:54:35.304Z,14.80
2023-08-20T01:57:02.684Z,14.70
2023-08-20T01:59:30.100Z,14.70
2023-08-20T02:01:57.521Z,14.70
2023-08-20T02:04:24.934Z,14.60
2023-08-20T02:06:52.146Z,14.50
2023-08-20T02:09:21.168Z,14.50
2023-08-20T02:11:48.631Z,14.40
2023-08-20T02:14:15.846Z,14.40
2023-08-20T02:16:43.121Z,14.30
2023-08-20T02:19:10.713Z,14.20
2023-08-20T02:21:38.325Z,14.10
2023-08-20T02:24:06.052Z,14.00
2023-08-20T02:26:36.215Z,14.00
2023-08-20T02:29:04.335Z,14.00
2023-08-20T02:31:31.762Z,13.90
2023-08-20T02:33:59.141Z,13.70
2023-08-20T02:36:26.714Z,13.60
2023-08-20T02:38:54.495Z,13.50
2023-08-20T02:41:22.182Z,13.40
2023-08-20T02:43:50.030Z,13.40
2023-08-20T02:46:17.529Z,13.30
2023-08-20T02:48:44.997Z,13.20
2023-08-20T02:51:12.355Z,13.10
2023-08-20T02:53:42.495Z,13.00
2023-08-20T02:56:10.073Z,12.90
2023-08-20T02:58:37.219Z,12.90
2023-08-20T03:01:04.523Z,12.80
2023-08-20T03:03:31.654Z,12.80
2023-08-20T03:05:59.142Z,12.80
2023-08-20T03:08:27.692Z,12.80
2023-08-20T03:10:54.894Z,12.80
2023-08-20T03:13:22.283Z,12.80
2023-08-20T03:15:49.702Z,12.80
2023-08-20T03:18:17.179Z,12.90
2023-08-20T03:20:44.414Z,12.90
2023-08-20T03:23:11.937Z,12.90
2023-08-20T03:25:40.004Z,12.90
2023-08-20T03:28:07.199Z,12.90
2023-08-20T03:30:35.336Z,13.00
2023-08-20T03:33:02.812Z,13.10
2023-08-20T03:35:30.371Z,13.20
2023-08-20T03:37:57.739Z,13.30
2023-08-20T03:40:25.372Z,13.40
2023-08-20T03:42:52.753Z,13.40
2023-08-20T03:45:19.943Z,13.40
2023-08-20T03:47:48.606Z,13.40
2023-08-20T03:50:16.040Z,13.50
2023-08-20T03:52:43.404Z,13.50
2023-08-20T03:55:10.777Z,13.80
2023-08-20T03:57:38.099Z,13.80
2023-08-20T04:00:09.621Z,13.80
2023-08-20T04:02:36.979Z,13.70
2023-08-20T04:05:05.495Z,13.80
2023-08-20T04:07:33.078Z,13.80
2023-08-20T04:10:00.778Z,13.90
2023-08-20T04:12:28.277Z,14.00
2023-08-20T04:14:55.789Z,14.20
2023-08-20T04:17:23.491Z,14.20
2023-08-20T04:19:51.432Z,14.30
2023-08-20T04:22:18.939Z,14.30
2023-08-20T04:24:46.542Z,14.40
2023-08-20T04:27:13.963Z,14.50
2023-08-20T04:29:41.466Z,14.60
2023-08-20T04:32:08.858Z,14.80
2023-08-20T04:34:36.098Z,14.90
2023-08-20T04:37:03.415Z,15.00
2023-08-20T04:39:30.903Z,15.00
2023-08-20T04:41:58.665Z,14.90
2023-08-20T04:44:26.062Z,15.00
2023-08-20T04:46:53.280Z,15.00
2023-08-20T04:49:20.714Z,15.00
2023-08-20T04:51:48.105Z,15.00
2023-08-20T04:54:15.652Z,15.00
2023-08-20T04:56:43.234Z,15.00
2023-08-20T04:59:10.673Z,14.90
2023-08-20T05:01:37.843Z,14.90
2023-08-20T05:04:05.446Z,15.00
2023-08-20T05:06:33.034Z,15.10
2023-08-20T05:09:00.557Z,15.10
2023-08-20T05:11:27.804Z,15.10
2023-08-20T05:13:56.811Z,15.20
2023-08-20T05:16:24.344Z,15.30
2023-08-20T05:18:51.848Z,15.50
2023-08-20T05:21:19.299Z,15.70
2023-08-20T05:23:47.031Z,15.90
2023-08-20T05:26:14.441Z,16.40
2023-08-20T05:28:41.642Z,18.00
2023-08-20T05:31:09.426Z,20.40
2023-08-20T05:33:36.610Z,22.00
2023-08-20T05:36:04.262Z,22.10
2023-08-20T05:38:31.614Z,21.30
2023-08-20T05:40:58.832Z,21.10
2023-08-20T05:43:26.298Z,20.80
2023-08-20T05:45:53.534Z,21.10
2023-08-20T05:48:21.153Z,20.10
2023-08-20T05:50:48.630Z,20.30
2023-08-20T05:53:16.212Z,19.70
2023-08-20T05:55:43.761Z,19.60
2023-08-20T05:58:11.595Z,20.00
2023-08-20T06:00:39.548Z,20.50
2023-08-20T06:03:08.774Z,21.40
2023-08-20T06:05:36.229Z,21.10
2023-08-20T06:08:03.866Z,22.00
2023-08-20T06:10:31.392Z,22.30
2023-08-20T06:12:58.961Z,24.00
2023-08-20T06:15:26.485Z,25.50
2023-08-20T06:17:53.874Z,26.00
2023-08-20T06:20:21.412Z,25.90
2023-08-20T06:22:48.614Z,26.40
2023-08-20T06:25:17.188Z,26.80
2023-08-20T06:27:44.901Z,26.50
2023-08-20T06:30:12.980Z,23.60
2023-08-20T06:32:40.290Z,24.20
2023-08-20T06:35:10.375Z,25.50
2023-08-20T06:37:39.864Z,25.40
2023-08-20T06:40:08.768Z,25.10
2023-08-20T06:42:38.775Z,24.70
2023-08-20T06:45:09.410Z,23.50
2023-08-20T06:47:37.452Z,22.30
2023-08-20T06:50:05.861Z,21.40
2023-08-20T06:52:33.547Z,21.80
2023-08-20T06:55:00.991Z,21.70
2023-08-20T06:57:28.405Z,22.30
2023-08-20T06:59:55.727Z,22.10
2023-08-20T07:02:23.014Z,21.50
2023-08-20T07:04:50.450Z,21.50
2023-08-20T07:07:18.022Z,21.00
2023-08-20T07:09:45.429Z,20.40
2023-08-20T07:12:12.646Z,20.70
2023-08-20T07:14:39.962Z,20.80
2023-08-20T07:17:07.234Z,20.50
2023-08-20T07:19:34.741Z,19.90
2023-08-20T07:22:02.242Z,19.70
2023-08-20T07:24:31.496Z,20.00
2023-08-20T07:27:02.689Z,20.20
2023-08-20T07:29:32.877Z,20.40
2023-08-20T07:32:04.630Z,20.40
2023-08-20T07:34:32.062Z,20.20
2023-08-20T07:37:00.097Z,20.50
2023-08-20T07:39:27.471Z,20.60
2023-08-20T07:41:54.880Z,21.00
2023-08-20T07:44:22.325Z,20.90
2023-08-20T07:46:49.736Z,21.40
2023-08-20T07:49:17.139Z,20.40
2023-08-20T07:51:44.361Z,19.80
2023-08-20T07:54:11.854Z,20.80
2023-08-20T07:56:39.101Z,21.20
2023-08-20T07:59:06.616Z,20.70
2023-08-20T08:01:34.286Z,20.20
2023-08-20T08:04:02.398Z,20.10
2023-08-20T08:06:29.880Z,20.10
2023-08-20T08:08:57.181Z,20.00
2023-08-20T08:11:25.545Z,19.90
2023-08-20T08:13:52.982Z,19.20
2023-08-20T08:16:20.466Z,19.20
2023-08-20T08:18:47.936Z,18.90
2023-08-20T08:21:15.474Z,18.50
2023-08-20T08:23:42.651Z,18.60
2023-08-20T08:26:10.073Z,18.60
2023-08-20T08:28:37.448Z,18.50
2023-08-20T08:31:07.904Z,18.70
2023-08-20T08:33:35.753Z,18.50
2023-08-20T08:36:02.992Z,18.50
2023-08-20T08:38:30.373Z,18.40
2023-08-20T08:41:07.345Z,18.50
2023-08-20T08:43:38.736Z,18.80
2023-08-20T08:46:09.236Z,18.50
2023-08-20T08:48:36.955Z,18.50
2023-08-20T08:51:04.562Z,18.50
2023-08-20T08:53:33.766Z,18.80
2023-08-20T08:56:01.941Z,19.10
2023-08-20T08:58:29.267Z,18.80
2023-08-20T09:00:56.644Z,19.00
2023-08-20T09:03:25.633Z,18.80
2023-08-20T09:06:04.803Z,19.00
2023-08-20T09:08:33.304Z,19.10
2023-08-20T09:11:02.255Z,19.20
2023-08-20T09:13:45.049Z,19.10
2023-08-20T09:16:13.499Z,18.90
2023-08-20T09:18:43.184Z,18.60
2023-08-20T09:21:16.435Z,18.80
2023-08-20T09:23:48.488Z,19.20
2023-08-20T09:26:16.643Z,19.60
2023-08-20T09:28:46.276Z,19.80
2023-08-20T09:31:18.177Z,19.60
2023-08-20T09:33:56.647Z,19.80
2023-08-20T09:36:35.677Z,19.60
2023-08-20T09:39:03.855Z,19.90
2023-08-20T09:41:35.681Z,20.00
2023-08-20T09:44:08.299Z,19.90
2023-08-20T09:46:37.073Z,19.80
2023-08-20T09:49:06.542Z,20.00
2023-08-20T09:51:37.472Z,20.00
2023-08-20T09:54:29.553Z,20.10
2023-08-20T09:57:02.137Z,20.50
2023-08-20T09:59:30.708Z,20.60
2023-08-20T10:01:59.274Z,19.90
2023-08-20T10:04:27.456Z,20.20
2023-08-20T10:06:56.442Z,20.20
2023-08-20T10:09:24.548Z,20.30
2023-08-20T10:11:51.793Z,20.30
2023-08-20T10:14:20.585Z,20.20
2023-08-20T10:16:48.138Z,19.90
2023-08-20T10:19:18.497Z,19.80
2023-08-20T10:21:50.894Z,19.80
2023-08-20T10:24:22.515Z,20.00
2023-08-20T10:27:08.028Z,19.80
2023-08-20T10:29:43.531Z,20.00
2023-08-20T10:32:13.477Z,19.70
2023-08-20T10:34:44.410Z,19.70
2023-08-20T10:37:15.266Z,19.50
2023-08-20T10:39:48.322Z,19.30
2023-08-20T10:42:21.460Z,19.30
2023-08-20T10:45:10.229Z,19.40
2023-08-20T10:47:48.922Z,19.80
2023-08-20T10:50:20.742Z,19.50
2023-08-20T10:52:56.528Z,19.30
2023-08-20T10:55:27.386Z,19.20
2023-08-20T10:58:00.980Z,19.20
2023-08-20T11:00:29.776Z,19.40
2023-08-20T11:02:58.232Z,19.80
2023-08-20T11:05:26.054Z,19.50
2023-08-20T11:07:53.785Z,19.40
2023-08-20T11:10:22.576Z,19.60
2023-08-20T11:12:50.225Z,19.70
2023-08-20T11:15:17.690Z,19.40
2023-08-20T11:17:51.392Z,19.30
2023-08-20T11:20:21.352Z,19.10
2023-08-20T11:22:48.620Z,19.30
2023-08-20T11:25:15.875Z,19.50
2023-08-20T11:27:44.378Z,19.10
2023-08-20T11:30:15.211Z,19.10
2023-08-20T11:32:44.441Z,18.70
2023-08-20T11:35:12.605Z,18.80
2023-08-20T11:37:41.329Z,19.20
2023-08-20T11:40:09.885Z,19.10
2023-08-20T11:42:37.391Z,19.30
2023-08-20T11:45:05.388Z,19.60
2023-08-20T11:47:43.241Z,19.60
2023-08-20T11:50:11.510Z,19.60
2023-08-20T11:52:40.960Z,19.40
2023-08-20T11:55:09.275Z,19.70
2023-08-20T11:57:37.147Z,20.00
2023-08-20T12:00:16.799Z,19.90
2023-08-20T12:02:44.904Z,19.90
2023-08-20T12:05:12.391Z,20.20
2023-08-20T12:07:39.577Z,19.80
2023-08-20T12:10:23.640Z,19.40
2023-08-20T12:12:51.975Z,19.10
2023-08-20T12:15:22.594Z,19.30
2023-08-20T12:18:03.103Z,19.10
2023-08-20T12:20:32.635Z,19.00
2023-08-20T12:23:02.493Z,19.10
2023-08-20T12:25:35.790Z,18.90
2023-08-20T12:28:07.382Z,19.00
2023-08-20T12:30:38.627Z,19.00
2023-08-20T12:33:07.561Z,19.00
2023-08-20T12:35:35.326Z,19.00
2023-08-20T12:38:02.962Z,18.90
2023-08-20T12:40:30.736Z,19.10
2023-08-20T12:42:58.263Z,19.10
2023-08-20T12:45:25.864Z,19.20
2023-08-20T12:47:53.141Z,19.50
2023-08-20T12:50:20.644Z,19.40
2023-08-20T12:52:50.484Z,19.30
2023-08-20T12:55:17.912Z,18.80
2023-08-20T12:57:59.212Z,18.80
2023-08-20T13:00:28.590Z,18.90
2023-08-20T13:02:56.943Z,18.70
2023-08-20T13:05:25.505Z,18.70
2023-08-20T13:07:53.810Z,18.70
2023-08-20T13:10:21.915Z,18.70
2023-08-20T13:12:55.413Z,18.60
2023-08-20T13:15:24.231Z,18.50
2023-08-20T13:17:52.051Z,18.50
2023-08-20T13:20:24.105Z,18.60
2023-08-20T13:22:52.471Z,18.40
2023-08-20T13:25:19.836Z,18.30
2023-08-20T13:27:47.189Z,18.30
2023-08-20T13:30:14.716Z,18.30
2023-08-20T13:32:42.220Z,18.20
2023-08-20T13:35:10.452Z,18.10
2023-08-20T13:37:38.086Z,18.30
2023-08-20T13:40:06.235Z,18.30
2023-08-20T13:42:34.039Z,18.20
2023-08-20T13:45:01.885Z,18.10
2023-08-20T13:47:29.385Z,18.00
2023-08-20T13:49:56.883Z,18.10
2023-08-20T13:52:24.134Z,18.00
2023-08-20T13:54:51.598Z,17.90
2023-08-20T13:57:19.028Z,18.00
2023-08-20T13:59:46.640Z,17.90
2023-08-20T14:02:13.888Z,17.80
2023-08-20T14:04:41.151Z,17.70
2023-08-20T14:07:09.148Z,17.80
2023-08-20T14:09:37.456Z,17.80
2023-08-20T14:12:04.910Z,17.90
2023-08-20T14:14:32.270Z,18.00
2023-08-20T14:16:59.484Z,17.90
2023-08-20T14:19:26.743Z,18.00
2023-08-20T14:21:54.254Z,18.00
2023-08-20T14:24:21.808Z,17.90
2023-08-20T14:26:49.662Z,18.00
2023-08-20T14:29:17.221Z,17.90
2023-08-20T14:31:44.568Z,18.10
2023-08-20T14:34:11.927Z,18.00
2023-08-20T14:36:39.676Z,18.20
2023-08-20T14:39:10.333Z,18.20
2023-08-20T14:41:38.041Z,18.20
2023-08-20T14:44:05.666Z,18.10
2023-08-20T14:46:33.361Z,18.00
2023-08-20T14:49:01.040Z,17.90
2023-08-20T14:51:28.462Z,17.80
2023-08-20T14:53:56.071Z,18.10
2023-08-20T14:56:23.495Z,18.30
2023-08-20T14:58:51.291Z,18.10
2023-08-20T15:01:19.180Z,18.00
2023-08-20T15:03:47.721Z,18.10
2023-08-20T15:06:18.072Z,18.10
2023-08-20T15:08:45.523Z,17.80
2023-08-20T15:11:12.729Z,17.60
2023-08-20T15:13:41.330Z,17.60
2023-08-20T15:16:08.634Z,17.60
2023-08-20T15:18:36.128Z,17.70
2023-08-20T15:21:04.221Z,17.60
2023-08-20T15:23:31.617Z,17.60
2023-08-20T15:25:59.017Z,17.60
2023-08-20T15:28:27.511Z,17.60
2023-08-20T15:30:55.575Z,17.50
2023-08-20T15:33:23.536Z,17.40
2023-08-20T15:35:51.233Z,17.40
2023-08-20T15:38:20.338Z,17.40
2023-08-20T15:40:47.742Z,17.50
2023-08-20T15:43:14.968Z,17.60
2023-08-20T15:45:42.668Z,17.60
2023-08-20T15:48:11.142Z,17.30
2023-08-20T15:50:40.358Z,17.30
2023-08-20T15:53:08.694Z,17.40
2023-08-20T15:55:35.923Z,17.40
2023-08-20T15:58:04.346Z,17.50
2023-08-20T16:00:32.992Z,17.50
2023-08-20T16:03:00.547Z,17.50
2023-08-20T16:05:28.045Z,17.40
2023-08-20T16:07:55.533Z,17.50
2023-08-20T16:10:22.980Z,17.40
2023-08-20T16:12:50.285Z,17.20
2023-08-20T16:15:17.991Z,17.00
2023-08-20T16:17:45.522Z,16.90
2023-08-20T16:20:13.080Z,16.80
2023-08-20T16:22:40.396Z,16.80
2023-08-20T16:25:08.313Z,16.90
2023-08-20T16:27:37.923Z,16.80
2023-08-20T16:30:08.122Z,16.70
2023-08-20T16:32:35.595Z,16.60
2023-08-20T16:35:03.239Z,16.50
2023-08-20T16:37:30.578Z,16.60
2023-08-20T16:39:59.161Z,16.60
2023-08-20T16:42:26.535Z,16.60
2023-08-20T16:44:53.828Z,16.60
2023-08-20T16:47:21.907Z,16.50
2023-08-20T16:49:49.320Z,16.50
2023-08-20T16:52:16.598Z,16.50
2023-08-20T16:54:48.313Z,16.50
2023-08-20T16:57:15.815Z,16.50
2023-08-20T16:59:43.142Z,16.60
2023-08-20T17:02:10.602Z,16.60
2023-08-20T17:04:37.769Z,16.50
2023-08-20T17:07:05.336Z,16.50
2023-08-20T17:09:32.768Z,16.50
2023-08-20T17:12:00.644Z,16.60
2023-08-20T17:14:28.377Z,16.60
2023-08-20T17:16:56.410Z,16.60
2023-08-20T17:19:24.482Z,16.50
2023-08-20T17:21:53.269Z,16.40
2023-08-20T17:24:20.780Z,16.30
2023-08-20T17:26:48.085Z,16.40
2023-08-20T17:29:15.317Z,16.30
2023-08-20T17:31:42.642Z,16.30
2023-08-20T17:34:11.845Z,16.30
2023-08-20T17:36:39.315Z,16.30
2023-08-20T17:39:08.349Z,16.20
2023-08-20T17:41:35.969Z,16.20
2023-08-20T17:44:03.217Z,16.30
2023-08-20T17:46:51.097Z,16.40
2023-08-20T17:49:18.375Z,16.40
2023-08-20T17:51:46.972Z,16.40
2023-08-20T17:54:14.754Z,16.50
2023-08-20T17:56:42.242Z,16.50
2023-08-20T17:59:10.053Z,16.60
2023-08-20T18:01:38.328Z,16.70
2023-08-20T18:04:05.836Z,16.60
2023-08-20T18:06:33.586Z,16.60
2023-08-20T18:09:01.409Z,16.60
2023-08-20T18:11:29.493Z,16.60
2023-08-20T18:13:57.001Z,16.60
2023-08-20T18:16:24.625Z,16.50
2023-08-20T18:18:52.088Z,16.40
2023-08-20T18:21:19.337Z,16.40
2023-08-20T18:23:46.795Z,16.50
2023-08-20T18:26:14.331Z,16.40
2023-08-20T18:28:42.523Z,16.50
2023-08-20T18:31:10.031Z,16.40
2023-08-20T18:33:37.484Z,16.40
2023-08-20T18:36:05.605Z,16.40
2023-08-20T18:38:33.034Z,16.40
2023-08-20T18:41:02.162Z,16.40
2023-08-20T18:43:30.705Z,16.40
2023-08-20T18:45:58.162Z,16.20
2023-08-20T18:48:25.642Z,16.20
2023-08-20T18:50:53.497Z,16.20
2023-08-20T18:53:20.904Z,16.30
2023-08-20T18:55:48.116Z,16.20
2023-08-20T18:58:15.492Z,16.30
2023-08-20T19:00:43.423Z,16.30
2023-08-20T19:03:13.863Z,16.40
2023-08-20T19:05:44.083Z,16.30
2023-08-20T19:08:11.418Z,16.30
2023-08-20T19:10:39.489Z,16.30
2023-08-20T19:13:06.864Z,16.30
2023-08-20T19:15:57.542Z,16.40
2023-08-20T19:18:25.393Z,16.50
2023-08-20T19:20:57.952Z,16.50
2023-08-20T19:23:25.399Z,16.30
2023-08-20T19:25:52.843Z,16.30
2023-08-20T19:28:20.277Z,16.30
2023-08-20T19:30:51.318Z,16.40
2023-08-20T19:33:19.413Z,16.40
2023-08-20T19:35:47.507Z,16.30
2023-08-20T19:38:18.315Z,16.20
2023-08-20T19:40:49.091Z,16.10
2023-08-20T19:43:17.610Z,16.10
2023-08-20T19:45:45.474Z,16.20
2023-08-20T19:48:17.328Z,16.20
2023-08-20T19:50:44.960Z,16.10
2023-08-20T19:53:12.160Z,16.20
2023-08-20T19:55:39.666Z,16.20
2023-08-20T19:58:07.169Z,16.30
2023-08-20T20:00:34.590Z,16.40
2023-08-20T20:03:02.068Z,16.40
2023-08-20T20:05:30.991Z,16.50
2023-08-20T20:08:00.333Z,16.40
2023-08-20T20:10:27.845Z,16.40
2023-08-20T20:12:55.613Z,16.30
2023-08-20T20:15:23.271Z,16.20
2023-08-20T20:17:50.617Z,16.30
2023-08-20T20:20:17.996Z,16.20
2023-08-20T20:22:46.068Z,16.30
2023-08-20T20:25:14.413Z,16.30
2023-08-20T20:27:42.765Z,16.30
2023-08-20T20:30:10.703Z,16.30
2023-08-20T20:32:38.265Z,16.30
2023-08-20T20:35:06.778Z,16.30
2023-08-20T20:37:34.909Z,16.30
2023-08-20T20:40:10.437Z,16.30
2023-08-20T20:42:38.594Z,16.30
2023-08-20T20:45:07.409Z,16.30
2023-08-20T20:47:35.432Z,16.40
2023-08-20T20:50:02.882Z,16.40
2023-08-20T20:52:30.472Z,16.30
2023-08-20T20:54:57.974Z,16.40
2023-08-20T20:57:25.534Z,16.40
2023-08-20T20:59:52.984Z,16.50
2023-08-20T21:02:20.521Z,16.60
2023-08-20T21:04:47.874Z,16.60
2023-08-20T21:07:15.146Z,16.70
2023-08-20T21:09:42.586Z,16.60
2023-08-20T21:12:10.397Z,16.70
2023-08-20T21:14:37.707Z,16.70
2023-08-20T21:17:05.030Z,16.60
2023-08-20T21:19:32.433Z,16.70
2023-08-20T21:22:02.643Z,16.70
2023-08-20T21:24:30.775Z,16.70
2023-08-20T21:26:58.237Z,16.60
2023-08-20T21:29:25.661Z,16.50
2023-08-20T21:31:53.020Z,16.60
2023-08-20T21:34:20.476Z,16.60
2023-08-20T21:36:47.772Z,16.60
2023-08-20T21:39:15.046Z,16.60
2023-08-20T21:41:42.499Z,16.50
2023-08-20T21:44:10.162Z,16.50
2023-08-20T21:46:37.743Z,16.50
2023-08-20T21:49:05.164Z,16.40
2023-08-20T21:51:32.691Z,16.50
2023-08-20T21:53:59.942Z,16.50
2023-08-20T21:56:27.467Z,16.50
2023-08-20T21:58:54.932Z,16.40
2023-08-20T22:01:22.923Z,16.40
2023-08-20T22:03:50.508Z,16.40
2023-08-20T22:06:18.612Z,16.40
2023-08-20T22:08:45.994Z,16.40
2023-08-20T22:11:13.729Z,16.40
2023-08-20T22:13:41.075Z,16.40
2023-08-20T22:16:08.401Z,16.40
2023-08-20T22:18:35.638Z,16.50
2023-08-20T22:21:03.636Z,16.50
2023-08-20T22:23:31.834Z,16.60
2023-08-20T22:25:59.313Z,16.60
2023-08-20T22:28:26.631Z,16.60
2023-08-20T22:30:54.006Z,16.60
2023-08-20T22:33:21.438Z,16.50
2023-08-20T22:35:52.738Z,16.50
2023-08-20T22:38:20.217Z,16.60
2023-08-20T22:40:47.442Z,16.60
2023-08-20T22:43:14.784Z,16.50
2023-08-20T22:45:42.087Z,16.50
2023-08-20T22:48:09.550Z,16.50
2023-08-20T22:50:37.009Z,16.50
2023-08-20T22:53:04.612Z,16.50
2023-08-20T22:55:32.802Z,16.50
2023-08-20T22:58:00.478Z,16.50
2023-08-20T23:00:28.370Z,16.40
2023-08-20T23:02:56.447Z,16.40
2023-08-20T23:05:24.518Z,16.40
2023-08-20T23:07:51.902Z,16.40
2023-08-20T23:10:19.450Z,16.50
2023-08-20T23:12:46.734Z,16.40
2023-08-20T23:15:14.504Z,16.40
2023-08-20T23:17:42.121Z,16.40
2023-08-20T23:20:10.405Z,16.40
2023-08-20T23:22:37.840Z,16.50
2023-08-20T23:25:05.957Z,16.40
2023-08-20T23:27:33.423Z,16.50
2023-08-20T23:30:01.939Z,16.40
2023-08-20T23:32:32.593Z,16.40
2023-08-20T23:34:59.994Z,16.40
2023-08-20T23:37:27.473Z,16.40
2023-08-20T23:39:55.361Z,16.40
2023-08-20T23:42:22.676Z,16.40
2023-08-20T23:44:50.292Z,16.50
2023-08-20T23:47:17.819Z,16.50
2023-08-20T23:49:45.382Z,16.50
2023-08-20T23:52:12.895Z,16.50
2023-08-20T23:54:40.423Z,16.50
2023-08-20T23:57:07.779Z,16.50
2023-08-20T23:59:35.402Z,16.50
